createdAt,value
2016-11-12T00:00:04.207Z,0
2016-11-12T00:05:04.167Z,0
2016-11-12T00:10:03.818Z,0
2016-11-12T00:15:03.990Z,0
2016-11-12T00:20:04.365Z,0
2016-11-12T00:25:04.357Z,0
2016-11-12T00:30:04.819Z,0
2016-11-12T00:35:04.681Z,0
2016-11-12T00:40:04.236Z,0
2016-11-12T00:45:04.044Z,0
2016-11-12T00:50:04.534Z,0
2016-11-12T00:55:04.039Z,0
2016-11-12T01:00:04.094Z,0
2016-11-12T01:05:03.974Z,0
2016-11-12T01:10:04.707Z,0
2016-11-12T01:15:04.329Z,0
2016-11-12T01:20:03.982Z,0
2016-11-12T01:25:04.628Z,0
2016-11-12T01:30:03.934Z,0
2016-11-12T01:35:04.487Z,0
2016-11-12T01:40:04.185Z,0
2016-11-12T01:45:04.628Z,0
2016-11-12T01:50:04.691Z,0
2016-11-12T01:55:04.595Z,0
2016-11-12T02:00:04.663Z,0
2016-11-12T02:05:04.582Z,0
2016-11-12T02:10:04.159Z,0
2016-11-12T02:15:04.795Z,0
2016-11-12T02:20:04.492Z,0
2016-11-12T02:25:04.741Z,0
2016-11-12T02:30:03.938Z,0
2016-11-12T02:35:03.987Z,0
2016-11-12T02:40:04.644Z,0
2016-11-12T02:45:04.063Z,0
2016-11-12T02:50:04.572Z,0
2016-11-12T02:55:04.154Z,0
2016-11-12T03:00:04.500Z,0
2016-11-12T03:05:08.634Z,0
2016-11-12T03:10:04.129Z,0
2016-11-12T03:15:04.000Z,0
2016-11-12T03:20:04.896Z,0
2016-11-12T03:25:04.926Z,0
2016-11-12T03:30:04.761Z,0
2016-11-12T03:35:04.364Z,0
2016-11-12T03:40:04.433Z,0
2016-11-12T03:45:04.348Z,0
2016-11-12T03:50:03.872Z,0
2016-11-12T03:55:04.574Z,0
2016-11-12T04:00:04.419Z,0
2016-11-12T04:05:04.888Z,0
2016-11-12T04:10:04.593Z,0
2016-11-12T04:15:04.585Z,0
2016-11-12T04:20:04.685Z,0
2016-11-12T04:25:04.656Z,0
2016-11-12T04:30:04.655Z,0
2016-11-12T04:35:04.249Z,0
2016-11-12T04:40:04.597Z,0
2016-11-12T04:45:04.444Z,0
2016-11-12T04:50:04.430Z,0
2016-11-12T04:55:04.207Z,0
2016-11-12T05:00:04.435Z,0
2016-11-12T05:05:04.688Z,0
2016-11-12T05:10:04.043Z,0
2016-11-12T05:15:04.239Z,0
2016-11-12T05:20:04.565Z,0
2016-11-12T05:25:04.240Z,0
2016-11-12T05:30:04.734Z,0
2016-11-12T05:35:04.708Z,0
2016-11-12T05:40:04.743Z,0
2016-11-12T05:45:04.690Z,0
2016-11-12T05:50:04.351Z,0
2016-11-12T05:55:04.608Z,0
2016-11-12T06:00:04.442Z,0
2016-11-12T06:05:03.759Z,0
2016-11-12T06:10:04.803Z,0
2016-11-12T06:15:04.482Z,1
2016-11-12T06:20:04.509Z,4
2016-11-12T06:25:04.198Z,11
2016-11-12T06:30:05.013Z,26
2016-11-12T06:35:04.360Z,37
2016-11-12T06:40:04.955Z,66
2016-11-12T06:45:04.403Z,128
2016-11-12T06:50:04.143Z,235
2016-11-12T06:55:04.853Z,316
2016-11-12T07:00:04.364Z,431
2016-11-12T07:05:04.284Z,561
2016-11-12T07:10:04.565Z,693
2016-11-12T07:15:04.538Z,804
2016-11-12T07:20:04.562Z,959
2016-11-12T07:25:04.499Z,1000
2016-11-12T07:30:04.775Z,1000
2016-11-12T07:35:04.711Z,2000
2016-11-12T07:40:04.816Z,2000
2016-11-12T07:45:04.295Z,2000
2016-11-12T07:50:04.068Z,2000
2016-11-12T07:55:04.120Z,2000
2016-11-12T08:00:04.925Z,2000
2016-11-12T08:05:04.612Z,2000
2016-11-12T08:10:04.201Z,3000
2016-11-12T08:15:04.934Z,3000
2016-11-12T08:20:04.614Z,3000
2016-11-12T08:25:04.100Z,3000
2016-11-12T08:30:04.841Z,2000
2016-11-12T08:35:04.028Z,2000
2016-11-12T08:40:04.235Z,3000
2016-11-12T08:45:04.355Z,3000
2016-11-12T08:50:04.441Z,4000
2016-11-12T08:55:04.770Z,5000
2016-11-12T09:00:04.427Z,5000
2016-11-12T09:05:04.373Z,5000
2016-11-12T09:10:04.335Z,5000
2016-11-12T09:15:04.427Z,5000
2016-11-12T09:20:04.248Z,5000
2016-11-12T09:25:04.317Z,5000
2016-11-12T09:30:04.317Z,5000
2016-11-12T09:35:04.310Z,6000
2016-11-12T09:40:04.482Z,6000
2016-11-12T09:45:03.995Z,7000
2016-11-12T09:50:04.638Z,6000
2016-11-12T09:55:04.839Z,6000
2016-11-12T10:00:04.131Z,6000
2016-11-12T10:05:04.142Z,5000
2016-11-12T10:10:03.784Z,5000
2016-11-12T10:15:04.262Z,6000
2016-11-12T10:20:04.466Z,5000
2016-11-12T10:25:04.190Z,7000
2016-11-12T10:30:04.548Z,9000
2016-11-12T10:35:03.924Z,8000
2016-11-12T10:40:03.880Z,7000
2016-11-12T10:45:04.602Z,6000
2016-11-12T10:50:04.361Z,5000
2016-11-12T10:55:04.227Z,5000
2016-11-12T11:00:03.907Z,4000
2016-11-12T11:05:04.302Z,4000
2016-11-12T11:10:04.436Z,4000
2016-11-12T11:15:04.517Z,4000
2016-11-12T11:20:04.560Z,4000
2016-11-12T11:25:04.737Z,4000
2016-11-12T11:30:04.176Z,4000
2016-11-12T11:35:03.978Z,4000
2016-11-12T11:40:04.123Z,5000
2016-11-12T11:45:04.166Z,6000
2016-11-12T11:50:03.976Z,6000
2016-11-12T11:55:04.888Z,6000
2016-11-12T12:00:04.282Z,6000
2016-11-12T12:05:04.098Z,5000
2016-11-12T12:10:04.703Z,5000
2016-11-12T12:15:04.909Z,7000
2016-11-12T12:20:04.657Z,8000
2016-11-12T12:25:04.810Z,7000
2016-11-12T12:30:04.083Z,5000
2016-11-12T12:35:05.025Z,5000
2016-11-12T12:40:04.893Z,5000
2016-11-12T12:45:04.486Z,5000
2016-11-12T12:50:04.177Z,5000
2016-11-12T12:55:04.501Z,6000
2016-11-12T13:00:04.607Z,6000
2016-11-12T13:05:04.432Z,5000
2016-11-12T13:10:04.321Z,4000
2016-11-12T13:15:03.983Z,4000
2016-11-12T13:20:04.223Z,4000
2016-11-12T13:25:03.931Z,4000
2016-11-12T13:30:04.267Z,4000
2016-11-12T13:35:04.562Z,5000
2016-11-12T13:40:04.215Z,5000
2016-11-12T13:45:04.742Z,5000
2016-11-12T13:50:04.137Z,4000
2016-11-12T13:55:04.884Z,4000
2016-11-12T14:00:04.919Z,4000
2016-11-12T14:05:04.505Z,5000
2016-11-12T14:10:04.610Z,7000
2016-11-12T14:15:04.443Z,6000
2016-11-12T14:20:04.636Z,4000
2016-11-12T14:25:04.387Z,4000
2016-11-12T14:30:04.297Z,3000
2016-11-12T14:35:04.835Z,3000
2016-11-12T14:40:04.269Z,3000
2016-11-12T14:45:04.594Z,3000
2016-11-12T14:50:04.235Z,2000
2016-11-12T14:55:03.872Z,2000
2016-11-12T15:00:04.455Z,1000
2016-11-12T15:05:04.663Z,1000
2016-11-12T15:10:04.330Z,1000
2016-11-12T15:15:04.318Z,847
2016-11-12T15:20:04.706Z,721
2016-11-12T15:25:05.022Z,590
2016-11-12T15:30:04.612Z,458
2016-11-12T15:35:04.655Z,390
2016-11-12T15:40:04.220Z,175
2016-11-12T15:45:04.801Z,84
2016-11-12T15:50:04.897Z,67
2016-11-12T15:55:03.955Z,58
2016-11-12T16:00:04.051Z,43
2016-11-12T16:05:04.045Z,29
2016-11-12T16:10:04.030Z,15
2016-11-12T16:15:03.947Z,6
2016-11-12T16:20:04.741Z,3
2016-11-12T16:25:04.680Z,0
2016-11-12T16:30:04.285Z,0
2016-11-12T16:35:04.640Z,0
2016-11-12T16:40:04.597Z,0
2016-11-12T16:45:04.772Z,0
2016-11-12T16:50:04.440Z,0
2016-11-12T16:55:03.952Z,0
2016-11-12T17:00:05.105Z,0
2016-11-12T17:05:04.215Z,0
2016-11-12T17:10:03.993Z,0
2016-11-12T17:15:04.703Z,0
2016-11-12T17:20:04.209Z,0
2016-11-12T17:25:04.355Z,0
2016-11-12T17:30:04.167Z,0
2016-11-12T17:35:04.149Z,0
2016-11-12T17:40:04.351Z,0
2016-11-12T17:45:04.541Z,0
2016-11-12T17:50:04.610Z,0
2016-11-12T17:55:04.178Z,0
2016-11-12T18:00:03.982Z,0
2016-11-12T18:05:04.648Z,0
2016-11-12T18:10:04.540Z,0
2016-11-12T18:15:04.299Z,0
2016-11-12T18:20:04.167Z,0
2016-11-12T18:25:04.335Z,0
2016-11-12T18:30:04.996Z,0
2016-11-12T18:35:04.141Z,0
2016-11-12T18:40:03.997Z,0
2016-11-12T18:45:04.461Z,0
2016-11-12T18:50:04.048Z,0
2016-11-12T18:55:04.018Z,0
2016-11-12T19:00:04.800Z,0
2016-11-12T19:05:04.590Z,0
2016-11-12T19:10:04.721Z,0
2016-11-12T19:15:04.503Z,0
2016-11-12T19:20:04.681Z,0
2016-11-12T19:25:04.062Z,0
2016-11-12T19:30:03.915Z,0
2016-11-12T19:35:04.518Z,0
2016-11-12T19:40:04.367Z,0
2016-11-12T19:45:04.012Z,0
2016-11-12T19:50:04.641Z,0
2016-11-12T19:55:04.214Z,0
2016-11-12T20:00:04.968Z,0
2016-11-12T20:05:04.295Z,0
2016-11-12T20:10:04.272Z,0
2016-11-12T20:15:04.053Z,0
2016-11-12T20:20:04.009Z,0
2016-11-12T20:25:04.675Z,0
2016-11-12T20:30:04.762Z,0
2016-11-12T20:35:04.526Z,0
2016-11-12T20:40:04.301Z,0
2016-11-12T20:45:04.505Z,0
2016-11-12T20:50:04.303Z,0
2016-11-12T20:55:04.604Z,0
2016-11-12T21:00:03.874Z,0
2016-11-12T21:05:04.005Z,0
2016-11-12T21:10:04.724Z,0
2016-11-12T21:15:04.420Z,0
2016-11-12T21:20:04.700Z,0
2016-11-12T21:25:04.487Z,0
2016-11-12T21:30:04.213Z,0
2016-11-12T21:35:03.947Z,0
2016-11-12T21:40:04.008Z,0
2016-11-12T21:45:04.700Z,0
2016-11-12T21:50:04.373Z,0
2016-11-12T21:55:04.048Z,0
2016-11-12T22:00:04.457Z,0
2016-11-12T22:05:04.981Z,0
2016-11-12T22:10:04.821Z,0
2016-11-12T22:15:03.978Z,0
2016-11-12T22:20:04.380Z,0
2016-11-12T22:25:04.707Z,0
2016-11-12T22:30:04.467Z,0
2016-11-12T22:35:03.876Z,0
2016-11-12T22:40:03.870Z,0
2016-11-12T22:45:04.499Z,0
2016-11-12T22:50:03.990Z,0
2016-11-12T22:55:04.641Z,0
2016-11-12T23:00:04.659Z,0
2016-11-12T23:05:04.740Z,0
2016-11-12T23:10:04.552Z,0
2016-11-12T23:15:04.776Z,0
2016-11-12T23:20:04.394Z,0
2016-11-12T23:25:04.850Z,0
2016-11-12T23:30:04.483Z,0
2016-11-12T23:35:03.971Z,0
2016-11-12T23:40:04.928Z,0
2016-11-12T23:45:04.347Z,0
2016-11-12T23:50:04.895Z,0
2016-11-12T23:55:04.384Z,0
